sensor_id;sensor_type;location;lat;lon;timestamp;P1;durP1;ratioP1;P2;durP2;ratioP2
49826;SDS011;35715;51.570;6.036;2023-07-29T00:00:39;2.92;;;1.45;;
49826;SDS011;35715;51.570;6.036;2023-07-29T00:03:05;2.50;;;2.30;;
49826;SDS011;35715;51.570;6.036;2023-07-29T00:05:30;7.00;;;1.85;;
49826;SDS011;35715;51.570;6.036;2023-07-29T00:07:56;1.60;;;1.50;;
49826;SDS011;35715;51.570;6.036;2023-07-29T00:10:21;3.38;;;1.70;;
49826;SDS011;35715;51.570;6.036;2023-07-29T00:12:46;1.83;;;1.73;;
49826;SDS011;35715;51.570;6.036;2023-07-29T00:15:12;2.58;;;2.38;;
49826;SDS011;35715;51.570;6.036;2023-07-29T00:17:37;2.50;;;2.30;;
49826;SDS011;35715;51.570;6.036;2023-07-29T00:20:03;2.72;;;2.53;;
49826;SDS011;35715;51.570;6.036;2023-07-29T00:22:28;3.83;;;2.60;;
49826;SDS011;35715;51.570;6.036;2023-07-29T00:24:54;2.28;;;2.05;;
49826;SDS011;35715;51.570;6.036;2023-07-29T00:27:20;2.80;;;2.17;;
49826;SDS011;35715;51.570;6.036;2023-07-29T00:29:46;2.67;;;2.13;;
49826;SDS011;35715;51.570;6.036;2023-07-29T00:32:12;3.83;;;2.75;;
49826;SDS011;35715;51.570;6.036;2023-07-29T00:34:37;8.02;;;3.00;;
49826;SDS011;35715;51.570;6.036;2023-07-29T00:37:02;3.35;;;3.15;;
49826;SDS011;35715;51.570;6.036;2023-07-29T00:39:28;3.53;;;3.17;;
49826;SDS011;35715;51.570;6.036;2023-07-29T00:41:53;2.83;;;2.63;;
49826;SDS011;35715;51.570;6.036;2023-07-29T00:44:18;2.40;;;2.20;;
49826;SDS011;35715;51.570;6.036;2023-07-29T00:46:44;3.28;;;2.17;;
49826;SDS011;35715;51.570;6.036;2023-07-29T00:49:11;2.33;;;2.13;;
49826;SDS011;35715;51.570;6.036;2023-07-29T00:51:36;3.58;;;2.47;;
49826;SDS011;35715;51.570;6.036;2023-07-29T00:54:02;2.70;;;2.50;;
49826;SDS011;35715;51.570;6.036;2023-07-29T00:56:27;3.03;;;2.83;;
49826;SDS011;35715;51.570;6.036;2023-07-29T00:58:53;2.15;;;2.03;;
49826;SDS011;35715;51.570;6.036;2023-07-29T01:01:24;2.40;;;2.20;;
49826;SDS011;35715;51.570;6.036;2023-07-29T01:03:50;2.63;;;2.45;;
49826;SDS011;35715;51.570;6.036;2023-07-29T01:06:18;2.88;;;2.78;;
49826;SDS011;35715;51.570;6.036;2023-07-29T01:09:06;2.70;;;1.67;;
49826;SDS011;35715;51.570;6.036;2023-07-29T01:11:45;7.38;;;2.95;;
49826;SDS011;35715;51.570;6.036;2023-07-29T01:17:17;2.70;;;2.35;;
49826;SDS011;35715;51.570;6.036;2023-07-29T01:20:08;2.72;;;2.53;;
49826;SDS011;35715;51.570;6.036;2023-07-29T01:22:35;3.30;;;2.47;;
49826;SDS011;35715;51.570;6.036;2023-07-29T01:25:02;3.47;;;2.67;;
49826;SDS011;35715;51.570;6.036;2023-07-29T01:27:28;2.92;;;2.53;;
49826;SDS011;35715;51.570;6.036;2023-07-29T01:29:54;4.45;;;2.70;;
49826;SDS011;35715;51.570;6.036;2023-07-29T01:32:28;6.40;;;3.72;;
49826;SDS011;35715;51.570;6.036;2023-07-29T01:35:12;2.53;;;2.33;;
49826;SDS011;35715;51.570;6.036;2023-07-29T01:37:43;5.80;;;3.20;;
49826;SDS011;35715;51.570;6.036;2023-07-29T01:40:13;3.85;;;3.40;;
49826;SDS011;35715;51.570;6.036;2023-07-29T01:42:39;3.45;;;3.25;;
49826;SDS011;35715;51.570;6.036;2023-07-29T01:45:05;5.57;;;3.85;;
49826;SDS011;35715;51.570;6.036;2023-07-29T01:47:30;7.65;;;3.15;;
49826;SDS011;35715;51.570;6.036;2023-07-29T01:49:56;5.00;;;3.50;;
49826;SDS011;35715;51.570;6.036;2023-07-29T01:52:21;3.40;;;3.00;;
49826;SDS011;35715;51.570;6.036;2023-07-29T01:54:47;3.33;;;3.08;;
49826;SDS011;35715;51.570;6.036;2023-07-29T01:57:13;7.22;;;4.35;;
49826;SDS011;35715;51.570;6.036;2023-07-29T01:59:38;12.85;;;4.00;;
49826;SDS011;35715;51.570;6.036;2023-07-29T02:02:04;7.00;;;3.08;;
49826;SDS011;35715;51.570;6.036;2023-07-29T02:04:29;3.95;;;3.45;;
49826;SDS011;35715;51.570;6.036;2023-07-29T02:06:54;4.13;;;3.03;;
49826;SDS011;35715;51.570;6.036;2023-07-29T02:09:20;3.35;;;3.05;;
49826;SDS011;35715;51.570;6.036;2023-07-29T02:11:45;5.13;;;3.70;;
49826;SDS011;35715;51.570;6.036;2023-07-29T02:14:12;4.82;;;3.70;;
49826;SDS011;35715;51.570;6.036;2023-07-29T02:16:37;3.42;;;2.70;;
49826;SDS011;35715;51.570;6.036;2023-07-29T02:19:04;3.88;;;3.58;;
49826;SDS011;35715;51.570;6.036;2023-07-29T02:21:29;3.78;;;3.47;;
49826;SDS011;35715;51.570;6.036;2023-07-29T02:23:54;4.25;;;3.95;;
49826;SDS011;35715;51.570;6.036;2023-07-29T02:26:20;6.03;;;3.80;;
49826;SDS011;35715;51.570;6.036;2023-07-29T02:28:45;4.82;;;3.78;;
49826;SDS011;35715;51.570;6.036;2023-07-29T02:31:15;4.18;;;3.85;;
49826;SDS011;35715;51.570;6.036;2023-07-29T02:33:46;4.20;;;3.90;;
49826;SDS011;35715;51.570;6.036;2023-07-29T02:36:11;4.00;;;3.75;;
49826;SDS011;35715;51.570;6.036;2023-07-29T02:38:38;3.70;;;3.50;;
49826;SDS011;35715;51.570;6.036;2023-07-29T02:41:03;7.18;;;3.75;;
49826;SDS011;35715;51.570;6.036;2023-07-29T02:43:29;4.03;;;3.63;;
49826;SDS011;35715;51.570;6.036;2023-07-29T02:45:54;5.35;;;3.83;;
49826;SDS011;35715;51.570;6.036;2023-07-29T02:48:20;7.80;;;4.82;;
49826;SDS011;35715;51.570;6.036;2023-07-29T02:50:45;3.92;;;3.63;;
49826;SDS011;35715;51.570;6.036;2023-07-29T02:53:10;5.88;;;3.97;;
49826;SDS011;35715;51.570;6.036;2023-07-29T02:55:39;4.65;;;4.25;;
49826;SDS011;35715;51.570;6.036;2023-07-29T02:58:05;5.38;;;4.68;;
49826;SDS011;35715;51.570;6.036;2023-07-29T03:00:33;5.93;;;5.05;;
49826;SDS011;35715;51.570;6.036;2023-07-29T03:02:59;5.68;;;5.15;;
49826;SDS011;35715;51.570;6.036;2023-07-29T03:05:26;9.38;;;5.68;;
49826;SDS011;35715;51.570;6.036;2023-07-29T03:07:52;4.07;;;3.70;;
49826;SDS011;35715;51.570;6.036;2023-07-29T03:10:18;4.53;;;3.38;;
49826;SDS011;35715;51.570;6.036;2023-07-29T03:12:43;4.43;;;4.03;;
49826;SDS011;35715;51.570;6.036;2023-07-29T03:15:09;5.65;;;3.78;;
49826;SDS011;35715;51.570;6.036;2023-07-29T03:17:34;3.45;;;3.15;;
49826;SDS011;35715;51.570;6.036;2023-07-29T03:20:00;5.07;;;3.63;;
49826;SDS011;35715;51.570;6.036;2023-07-29T03:22:25;5.38;;;3.53;;
49826;SDS011;35715;51.570;6.036;2023-07-29T03:24:51;5.97;;;4.22;;
49826;SDS011;35715;51.570;6.036;2023-07-29T03:27:16;4.57;;;4.18;;
49826;SDS011;35715;51.570;6.036;2023-07-29T03:29:41;7.70;;;5.13;;
49826;SDS011;35715;51.570;6.036;2023-07-29T03:32:07;6.38;;;4.43;;
49826;SDS011;35715;51.570;6.036;2023-07-29T03:34:32;4.30;;;3.90;;
49826;SDS011;35715;51.570;6.036;2023-07-29T03:36:59;5.55;;;3.60;;
49826;SDS011;35715;51.570;6.036;2023-07-29T03:39:25;5.18;;;4.72;;
49826;SDS011;35715;51.570;6.036;2023-07-29T03:41:51;6.57;;;4.65;;
49826;SDS011;35715;51.570;6.036;2023-07-29T03:44:16;4.95;;;4.53;;
49826;SDS011;35715;51.570;6.036;2023-07-29T03:46:43;3.65;;;3.03;;
49826;SDS011;35715;51.570;6.036;2023-07-29T03:49:08;5.85;;;3.83;;
49826;SDS011;35715;51.570;6.036;2023-07-29T03:51:34;5.38;;;4.57;;
49826;SDS011;35715;51.570;6.036;2023-07-29T03:53:59;5.03;;;4.53;;
49826;SDS011;35715;51.570;6.036;2023-07-29T03:56:25;3.63;;;3.33;;
49826;SDS011;35715;51.570;6.036;2023-07-29T03:58:52;5.35;;;3.47;;
49826;SDS011;35715;51.570;6.036;2023-07-29T04:01:18;6.80;;;4.60;;
49826;SDS011;35715;51.570;6.036;2023-07-29T04:03:47;4.43;;;4.03;;
49826;SDS011;35715;51.570;6.036;2023-07-29T04:06:12;4.28;;;3.92;;
49826;SDS011;35715;51.570;6.036;2023-07-29T04:08:38;3.80;;;3.50;;
49826;SDS011;35715;51.570;6.036;2023-07-29T04:11:03;4.43;;;3.63;;
49826;SDS011;35715;51.570;6.036;2023-07-29T04:13:28;5.93;;;4.15;;
49826;SDS011;35715;51.570;6.036;2023-07-29T04:15:54;2.95;;;2.75;;
49826;SDS011;35715;51.570;6.036;2023-07-29T04:18:19;3.33;;;3.03;;
49826;SDS011;35715;51.570;6.036;2023-07-29T04:20:44;5.95;;;3.58;;
49826;SDS011;35715;51.570;6.036;2023-07-29T04:23:10;4.97;;;4.00;;
49826;SDS011;35715;51.570;6.036;2023-07-29T04:25:35;3.17;;;2.78;;
49826;SDS011;35715;51.570;6.036;2023-07-29T04:28:01;4.60;;;3.10;;
49826;SDS011;35715;51.570;6.036;2023-07-29T04:30:28;3.17;;;2.88;;
49826;SDS011;35715;51.570;6.036;2023-07-29T04:32:53;3.63;;;3.00;;
49826;SDS011;35715;51.570;6.036;2023-07-29T04:35:19;8.95;;;3.38;;
49826;SDS011;35715;51.570;6.036;2023-07-29T04:37:44;4.88;;;3.63;;
49826;SDS011;35715;51.570;6.036;2023-07-29T04:40:10;4.80;;;3.22;;
49826;SDS011;35715;51.570;6.036;2023-07-29T04:42:36;4.72;;;2.83;;
49826;SDS011;35715;51.570;6.036;2023-07-29T04:45:01;2.80;;;2.58;;
49826;SDS011;35715;51.570;6.036;2023-07-29T04:47:27;4.80;;;3.20;;
49826;SDS011;35715;51.570;6.036;2023-07-29T04:49:53;6.93;;;3.35;;
49826;SDS011;35715;51.570;6.036;2023-07-29T04:52:18;6.63;;;3.22;;
49826;SDS011;35715;51.570;6.036;2023-07-29T04:54:44;3.75;;;3.15;;
49826;SDS011;35715;51.570;6.036;2023-07-29T04:57:10;4.88;;;3.60;;
49826;SDS011;35715;51.570;6.036;2023-07-29T04:59:35;8.35;;;3.80;;
49826;SDS011;35715;51.570;6.036;2023-07-29T05:02:00;7.05;;;4.00;;
49826;SDS011;35715;51.570;6.036;2023-07-29T05:04:26;3.83;;;3.50;;
49826;SDS011;35715;51.570;6.036;2023-07-29T05:06:51;4.38;;;4.03;;
49826;SDS011;35715;51.570;6.036;2023-07-29T05:09:17;3.97;;;3.58;;
49826;SDS011;35715;51.570;6.036;2023-07-29T05:11:43;6.70;;;4.22;;
49826;SDS011;35715;51.570;6.036;2023-07-29T05:16:39;5.95;;;4.03;;
49826;SDS011;35715;51.570;6.036;2023-07-29T05:19:04;6.45;;;4.53;;
49826;SDS011;35715;51.570;6.036;2023-07-29T05:21:30;4.60;;;4.20;;
49826;SDS011;35715;51.570;6.036;2023-07-29T05:23:55;10.40;;;4.97;;
49826;SDS011;35715;51.570;6.036;2023-07-29T05:26:21;4.78;;;3.83;;
49826;SDS011;35715;51.570;6.036;2023-07-29T05:28:47;11.57;;;3.83;;
49826;SDS011;35715;51.570;6.036;2023-07-29T05:31:13;6.30;;;3.80;;
49826;SDS011;35715;51.570;6.036;2023-07-29T05:33:38;7.20;;;4.22;;
49826;SDS011;35715;51.570;6.036;2023-07-29T05:36:04;3.80;;;3.50;;
49826;SDS011;35715;51.570;6.036;2023-07-29T05:38:30;3.47;;;3.17;;
49826;SDS011;35715;51.570;6.036;2023-07-29T05:40:55;3.33;;;3.13;;
49826;SDS011;35715;51.570;6.036;2023-07-29T05:43:21;4.95;;;4.50;;
49826;SDS011;35715;51.570;6.036;2023-07-29T05:45:46;3.85;;;3.50;;
49826;SDS011;35715;51.570;6.036;2023-07-29T05:48:12;4.95;;;3.42;;
49826;SDS011;35715;51.570;6.036;2023-07-29T05:50:37;4.63;;;3.35;;
49826;SDS011;35715;51.570;6.036;2023-07-29T05:53:02;6.05;;;4.75;;
49826;SDS011;35715;51.570;6.036;2023-07-29T05:55:28;4.22;;;3.33;;
49826;SDS011;35715;51.570;6.036;2023-07-29T05:57:54;4.78;;;3.78;;
49826;SDS011;35715;51.570;6.036;2023-07-29T06:00:20;3.97;;;2.53;;
49826;SDS011;35715;51.570;6.036;2023-07-29T06:02:45;4.15;;;3.72;;
49826;SDS011;35715;51.570;6.036;2023-07-29T06:05:10;4.07;;;3.67;;
49826;SDS011;35715;51.570;6.036;2023-07-29T06:07:36;3.88;;;3.10;;
49826;SDS011;35715;51.570;6.036;2023-07-29T06:10:01;3.38;;;3.10;;
49826;SDS011;35715;51.570;6.036;2023-07-29T06:12:27;4.00;;;2.97;;
49826;SDS011;35715;51.570;6.036;2023-07-29T06:14:52;7.15;;;2.90;;
49826;SDS011;35715;51.570;6.036;2023-07-29T06:17:18;4.80;;;3.47;;
49826;SDS011;35715;51.570;6.036;2023-07-29T06:19:43;3.83;;;3.53;;
49826;SDS011;35715;51.570;6.036;2023-07-29T06:22:09;3.70;;;2.75;;
49826;SDS011;35715;51.570;6.036;2023-07-29T06:24:35;5.20;;;3.80;;
49826;SDS011;35715;51.570;6.036;2023-07-29T06:27:00;7.90;;;2.42;;
49826;SDS011;35715;51.570;6.036;2023-07-29T06:29:26;4.57;;;2.78;;
49826;SDS011;35715;51.570;6.036;2023-07-29T06:31:51;4.60;;;3.28;;
49826;SDS011;35715;51.570;6.036;2023-07-29T06:34:17;2.75;;;2.55;;
49826;SDS011;35715;51.570;6.036;2023-07-29T06:36:43;2.80;;;2.60;;
49826;SDS011;35715;51.570;6.036;2023-07-29T06:39:09;3.58;;;2.72;;
49826;SDS011;35715;51.570;6.036;2023-07-29T06:41:34;3.85;;;2.88;;
49826;SDS011;35715;51.570;6.036;2023-07-29T06:44:00;2.13;;;1.98;;
49826;SDS011;35715;51.570;6.036;2023-07-29T06:46:25;3.65;;;2.45;;
49826;SDS011;35715;51.570;6.036;2023-07-29T06:48:51;2.58;;;2.17;;
49826;SDS011;35715;51.570;6.036;2023-07-29T06:51:16;3.05;;;2.72;;
49826;SDS011;35715;51.570;6.036;2023-07-29T06:53:41;4.28;;;2.53;;
49826;SDS011;35715;51.570;6.036;2023-07-29T06:56:07;2.88;;;2.63;;
49826;SDS011;35715;51.570;6.036;2023-07-29T06:58:32;2.97;;;2.78;;
49826;SDS011;35715;51.570;6.036;2023-07-29T07:00:58;3.00;;;1.90;;
49826;SDS011;35715;51.570;6.036;2023-07-29T07:03:23;2.25;;;2.08;;
49826;SDS011;35715;51.570;6.036;2023-07-29T07:05:48;4.15;;;3.10;;
49826;SDS011;35715;51.570;6.036;2023-07-29T07:08:15;2.78;;;2.50;;
49826;SDS011;35715;51.570;6.036;2023-07-29T07:10:40;3.78;;;2.10;;
49826;SDS011;35715;51.570;6.036;2023-07-29T07:13:06;5.45;;;2.65;;
49826;SDS011;35715;51.570;6.036;2023-07-29T07:15:31;2.67;;;2.47;;
49826;SDS011;35715;51.570;6.036;2023-07-29T07:17:57;2.63;;;2.30;;
49826;SDS011;35715;51.570;6.036;2023-07-29T07:20:22;3.22;;;2.92;;
49826;SDS011;35715;51.570;6.036;2023-07-29T07:22:47;4.20;;;2.83;;
49826;SDS011;35715;51.570;6.036;2023-07-29T07:25:13;2.45;;;2.25;;
49826;SDS011;35715;51.570;6.036;2023-07-29T07:27:38;8.23;;;2.38;;
49826;SDS011;35715;51.570;6.036;2023-07-29T07:30:04;2.40;;;1.95;;
49826;SDS011;35715;51.570;6.036;2023-07-29T07:32:29;2.05;;;1.70;;
49826;SDS011;35715;51.570;6.036;2023-07-29T07:34:55;3.30;;;1.88;;
49826;SDS011;35715;51.570;6.036;2023-07-29T07:37:20;3.88;;;2.30;;
49826;SDS011;35715;51.570;6.036;2023-07-29T07:39:48;3.65;;;2.25;;
49826;SDS011;35715;51.570;6.036;2023-07-29T07:42:14;3.25;;;2.33;;
49826;SDS011;35715;51.570;6.036;2023-07-29T07:44:39;2.10;;;1.70;;
49826;SDS011;35715;51.570;6.036;2023-07-29T07:47:05;3.45;;;1.83;;
49826;SDS011;35715;51.570;6.036;2023-07-29T07:49:30;1.90;;;1.75;;
49826;SDS011;35715;51.570;6.036;2023-07-29T07:51:56;1.75;;;1.65;;
49826;SDS011;35715;51.570;6.036;2023-07-29T07:54:21;2.10;;;1.60;;
49826;SDS011;35715;51.570;6.036;2023-07-29T07:56:47;4.45;;;2.08;;
49826;SDS011;35715;51.570;6.036;2023-07-29T07:59:12;2.33;;;2.13;;
49826;SDS011;35715;51.570;6.036;2023-07-29T08:01:38;2.45;;;1.63;;
49826;SDS011;35715;51.570;6.036;2023-07-29T08:04:04;1.63;;;1.50;;
49826;SDS011;35715;51.570;6.036;2023-07-29T08:06:30;2.72;;;1.30;;
49826;SDS011;35715;51.570;6.036;2023-07-29T08:08:57;3.70;;;1.50;;
49826;SDS011;35715;51.570;6.036;2023-07-29T08:11:22;1.70;;;1.60;;
49826;SDS011;35715;51.570;6.036;2023-07-29T08:13:48;1.50;;;1.40;;
49826;SDS011;35715;51.570;6.036;2023-07-29T08:16:13;1.85;;;1.50;;
49826;SDS011;35715;51.570;6.036;2023-07-29T08:18:39;2.47;;;1.92;;
49826;SDS011;35715;51.570;6.036;2023-07-29T08:21:04;3.83;;;1.95;;
49826;SDS011;35715;51.570;6.036;2023-07-29T08:23:30;1.85;;;1.38;;
49826;SDS011;35715;51.570;6.036;2023-07-29T08:25:57;2.70;;;1.45;;
49826;SDS011;35715;51.570;6.036;2023-07-29T08:28:30;1.35;;;1.25;;
49826;SDS011;35715;51.570;6.036;2023-07-29T08:30:57;3.67;;;1.30;;
49826;SDS011;35715;51.570;6.036;2023-07-29T08:33:24;2.28;;;1.67;;
49826;SDS011;35715;51.570;6.036;2023-07-29T08:35:50;1.58;;;1.35;;
49826;SDS011;35715;51.570;6.036;2023-07-29T08:38:15;3.47;;;1.92;;
49826;SDS011;35715;51.570;6.036;2023-07-29T08:41:04;4.65;;;2.05;;
49826;SDS011;35715;51.570;6.036;2023-07-29T08:43:29;2.58;;;1.23;;
49826;SDS011;35715;51.570;6.036;2023-07-29T08:48:39;5.00;;;1.63;;
49826;SDS011;35715;51.570;6.036;2023-07-29T08:51:06;7.13;;;1.35;;
49826;SDS011;35715;51.570;6.036;2023-07-29T08:53:34;1.63;;;1.00;;
49826;SDS011;35715;51.570;6.036;2023-07-29T08:56:00;1.45;;;1.35;;
49826;SDS011;35715;51.570;6.036;2023-07-29T08:58:26;2.83;;;1.45;;
49826;SDS011;35715;51.570;6.036;2023-07-29T09:00:51;2.67;;;1.58;;
49826;SDS011;35715;51.570;6.036;2023-07-29T09:03:17;1.42;;;1.10;;
49826;SDS011;35715;51.570;6.036;2023-07-29T09:05:43;1.55;;;1.45;;
49826;SDS011;35715;51.570;6.036;2023-07-29T09:08:08;3.47;;;1.55;;
49826;SDS011;35715;51.570;6.036;2023-07-29T09:10:35;2.78;;;1.95;;
49826;SDS011;35715;51.570;6.036;2023-07-29T09:13:02;3.00;;;1.50;;
49826;SDS011;35715;51.570;6.036;2023-07-29T09:15:29;0.95;;;0.95;;
49826;SDS011;35715;51.570;6.036;2023-07-29T09:17:56;2.80;;;1.85;;
49826;SDS011;35715;51.570;6.036;2023-07-29T09:20:26;0.90;;;0.90;;
49826;SDS011;35715;51.570;6.036;2023-07-29T09:22:53;1.98;;;1.20;;
49826;SDS011;35715;51.570;6.036;2023-07-29T09:25:26;1.13;;;1.02;;
49826;SDS011;35715;51.570;6.036;2023-07-29T09:27:58;3.53;;;1.90;;
49826;SDS011;35715;51.570;6.036;2023-07-29T09:30:24;4.95;;;1.58;;
49826;SDS011;35715;51.570;6.036;2023-07-29T09:32:56;3.78;;;1.67;;
49826;SDS011;35715;51.570;6.036;2023-07-29T09:35:22;4.18;;;1.20;;
49826;SDS011;35715;51.570;6.036;2023-07-29T09:37:49;1.40;;;1.20;;
49826;SDS011;35715;51.570;6.036;2023-07-29T09:40:17;2.45;;;1.75;;
49826;SDS011;35715;51.570;6.036;2023-07-29T09:42:52;2.67;;;1.20;;
49826;SDS011;35715;51.570;6.036;2023-07-29T09:45:23;1.52;;;1.10;;
49826;SDS011;35715;51.570;6.036;2023-07-29T09:47:49;0.90;;;0.90;;
49826;SDS011;35715;51.570;6.036;2023-07-29T09:50:16;1.85;;;1.10;;
49826;SDS011;35715;51.570;6.036;2023-07-29T09:52:42;1.35;;;1.25;;
49826;SDS011;35715;51.570;6.036;2023-07-29T09:55:09;1.08;;;0.77;;
49826;SDS011;35715;51.570;6.036;2023-07-29T09:57:36;0.90;;;0.90;;
49826;SDS011;35715;51.570;6.036;2023-07-29T10:00:04;1.52;;;1.42;;
49826;SDS011;35715;51.570;6.036;2023-07-29T10:02:35;1.55;;;1.45;;
49826;SDS011;35715;51.570;6.036;2023-07-29T10:05:01;2.95;;;1.27;;
49826;SDS011;35715;51.570;6.036;2023-07-29T10:07:28;1.42;;;1.30;;
49826;SDS011;35715;51.570;6.036;2023-07-29T10:09:54;3.05;;;1.48;;
49826;SDS011;35715;51.570;6.036;2023-07-29T10:12:21;1.23;;;1.13;;
49826;SDS011;35715;51.570;6.036;2023-07-29T10:14:47;1.17;;;1.17;;
49826;SDS011;35715;51.570;6.036;2023-07-29T10:17:15;1.45;;;0.98;;
49826;SDS011;35715;51.570;6.036;2023-07-29T10:19:40;2.47;;;0.90;;
49826;SDS011;35715;51.570;6.036;2023-07-29T10:22:08;1.50;;;0.70;;
49826;SDS011;35715;51.570;6.036;2023-07-29T10:24:36;0.93;;;0.93;;
49826;SDS011;35715;51.570;6.036;2023-07-29T10:27:06;1.13;;;0.85;;
49826;SDS011;35715;51.570;6.036;2023-07-29T10:29:34;0.70;;;0.70;;
49826;SDS011;35715;51.570;6.036;2023-07-29T10:32:04;4.32;;;1.02;;
49826;SDS011;35715;51.570;6.036;2023-07-29T10:34:31;1.52;;;1.30;;
49826;SDS011;35715;51.570;6.036;2023-07-29T10:36:59;1.40;;;1.27;;
49826;SDS011;35715;51.570;6.036;2023-07-29T10:39:25;1.58;;;1.48;;
49826;SDS011;35715;51.570;6.036;2023-07-29T10:42:01;1.05;;;1.02;;
49826;SDS011;35715;51.570;6.036;2023-07-29T10:47:38;1.33;;;1.30;;
49826;SDS011;35715;51.570;6.036;2023-07-29T10:49:58;2.28;;;1.13;;
49826;SDS011;35715;51.570;6.036;2023-07-29T10:54:59;1.45;;;0.95;;
49826;SDS011;35715;51.570;6.036;2023-07-29T10:57:34;1.33;;;1.23;;
49826;SDS011;35715;51.570;6.036;2023-07-29T11:00:04;1.88;;;1.15;;
49826;SDS011;35715;51.570;6.036;2023-07-29T11:05:06;2.53;;;1.00;;
49826;SDS011;35715;51.570;6.036;2023-07-29T11:07:47;1.45;;;1.02;;
49826;SDS011;35715;51.570;6.036;2023-07-29T11:10:14;3.90;;;1.25;;
49826;SDS011;35715;51.570;6.036;2023-07-29T11:12:49;1.30;;;1.20;;
49826;SDS011;35715;51.570;6.036;2023-07-29T11:15:21;1.00;;;1.00;;
49826;SDS011;35715;51.570;6.036;2023-07-29T11:20:27;3.13;;;0.90;;
49826;SDS011;35715;51.570;6.036;2023-07-29T11:22:53;3.40;;;1.25;;
49826;SDS011;35715;51.570;6.036;2023-07-29T11:25:20;1.92;;;1.02;;
49826;SDS011;35715;51.570;6.036;2023-07-29T11:27:47;2.10;;;1.15;;
49826;SDS011;35715;51.570;6.036;2023-07-29T11:30:14;1.38;;;1.00;;
49826;SDS011;35715;51.570;6.036;2023-07-29T11:32:41;2.15;;;1.40;;
49826;SDS011;35715;51.570;6.036;2023-07-29T11:37:40;1.73;;;1.52;;
49826;SDS011;35715;51.570;6.036;2023-07-29T11:40:07;1.80;;;1.70;;
49826;SDS011;35715;51.570;6.036;2023-07-29T11:42:35;1.75;;;1.27;;
49826;SDS011;35715;51.570;6.036;2023-07-29T11:45:02;1.50;;;1.40;;
49826;SDS011;35715;51.570;6.036;2023-07-29T11:47:28;1.33;;;1.23;;
49826;SDS011;35715;51.570;6.036;2023-07-29T11:49:57;1.10;;;1.00;;
49826;SDS011;35715;51.570;6.036;2023-07-29T11:52:25;2.13;;;1.40;;
49826;SDS011;35715;51.570;6.036;2023-07-29T11:54:52;1.90;;;1.10;;
49826;SDS011;35715;51.570;6.036;2023-07-29T11:57:17;1.50;;;1.40;;
49826;SDS011;35715;51.570;6.036;2023-07-29T11:59:43;3.58;;;1.33;;
49826;SDS011;35715;51.570;6.036;2023-07-29T12:02:13;4.18;;;1.33;;
49826;SDS011;35715;51.570;6.036;2023-07-29T12:04:40;8.73;;;1.80;;
49826;SDS011;35715;51.570;6.036;2023-07-29T12:07:07;1.73;;;1.15;;
49826;SDS011;35715;51.570;6.036;2023-07-29T12:09:34;1.70;;;1.13;;
49826;SDS011;35715;51.570;6.036;2023-07-29T12:12:00;4.68;;;0.82;;
49826;SDS011;35715;51.570;6.036;2023-07-29T12:14:28;7.00;;;1.45;;
49826;SDS011;35715;51.570;6.036;2023-07-29T12:16:53;2.05;;;1.40;;
49826;SDS011;35715;51.570;6.036;2023-07-29T12:19:19;1.42;;;1.33;;
49826;SDS011;35715;51.570;6.036;2023-07-29T12:21:47;2.97;;;1.10;;
49826;SDS011;35715;51.570;6.036;2023-07-29T12:24:13;7.22;;;2.30;;
49826;SDS011;35715;51.570;6.036;2023-07-29T12:26:41;16.88;;;2.00;;
49826;SDS011;35715;51.570;6.036;2023-07-29T12:29:17;1.63;;;1.40;;
49826;SDS011;35715;51.570;6.036;2023-07-29T12:31:46;1.83;;;1.50;;
49826;SDS011;35715;51.570;6.036;2023-07-29T12:34:21;10.40;;;3.28;;
49826;SDS011;35715;51.570;6.036;2023-07-29T12:36:47;3.00;;;1.42;;
49826;SDS011;35715;51.570;6.036;2023-07-29T12:39:27;3.38;;;1.83;;
49826;SDS011;35715;51.570;6.036;2023-07-29T12:41:55;2.67;;;2.22;;
49826;SDS011;35715;51.570;6.036;2023-07-29T12:44:25;3.35;;;1.70;;
49826;SDS011;35715;51.570;6.036;2023-07-29T12:46:55;5.10;;;2.10;;
49826;SDS011;35715;51.570;6.036;2023-07-29T12:49:21;4.75;;;2.88;;
49826;SDS011;35715;51.570;6.036;2023-07-29T12:51:47;5.15;;;3.45;;
49826;SDS011;35715;51.570;6.036;2023-07-29T12:54:12;1.92;;;1.83;;
49826;SDS011;35715;51.570;6.036;2023-07-29T12:56:38;2.47;;;2.25;;
49826;SDS011;35715;51.570;6.036;2023-07-29T12:59:04;1.60;;;1.50;;
49826;SDS011;35715;51.570;6.036;2023-07-29T13:01:30;2.38;;;1.63;;
49826;SDS011;35715;51.570;6.036;2023-07-29T13:03:56;2.17;;;2.03;;
49826;SDS011;35715;51.570;6.036;2023-07-29T13:06:21;2.20;;;1.75;;
49826;SDS011;35715;51.570;6.036;2023-07-29T13:08:47;2.10;;;1.90;;
49826;SDS011;35715;51.570;6.036;2023-07-29T13:11:14;4.50;;;2.80;;
49826;SDS011;35715;51.570;6.036;2023-07-29T13:13:40;4.90;;;2.20;;
49826;SDS011;35715;51.570;6.036;2023-07-29T13:16:05;11.02;;;2.40;;
49826;SDS011;35715;51.570;6.036;2023-07-29T13:18:31;6.78;;;3.28;;
49826;SDS011;35715;51.570;6.036;2023-07-29T13:20:57;3.25;;;1.67;;
49826;SDS011;35715;51.570;6.036;2023-07-29T13:23:22;12.80;;;2.42;;
49826;SDS011;35715;51.570;6.036;2023-07-29T13:25:47;9.70;;;2.17;;
49826;SDS011;35715;51.570;6.036;2023-07-29T13:28:13;4.07;;;1.85;;
49826;SDS011;35715;51.570;6.036;2023-07-29T13:30:41;3.03;;;1.10;;
49826;SDS011;35715;51.570;6.036;2023-07-29T13:33:07;5.22;;;1.85;;
49826;SDS011;35715;51.570;6.036;2023-07-29T13:35:32;1.50;;;1.40;;
49826;SDS011;35715;51.570;6.036;2023-07-29T13:38:01;3.85;;;1.63;;
49826;SDS011;35715;51.570;6.036;2023-07-29T13:40:27;2.00;;;1.70;;
49826;SDS011;35715;51.570;6.036;2023-07-29T13:42:52;2.45;;;1.50;;
49826;SDS011;35715;51.570;6.036;2023-07-29T13:45:18;2.30;;;2.10;;
49826;SDS011;35715;51.570;6.036;2023-07-29T13:47:44;2.67;;;2.25;;
49826;SDS011;35715;51.570;6.036;2023-07-29T13:50:09;2.33;;;1.77;;
49826;SDS011;35715;51.570;6.036;2023-07-29T13:52:35;1.98;;;1.80;;
49826;SDS011;35715;51.570;6.036;2023-07-29T13:55:02;1.83;;;1.58;;
49826;SDS011;35715;51.570;6.036;2023-07-29T13:57:28;1.80;;;1.63;;
49826;SDS011;35715;51.570;6.036;2023-07-29T13:59:53;1.45;;;1.35;;
49826;SDS011;35715;51.570;6.036;2023-07-29T14:02:19;5.93;;;2.45;;
49826;SDS011;35715;51.570;6.036;2023-07-29T14:04:44;1.45;;;1.35;;
49826;SDS011;35715;51.570;6.036;2023-07-29T14:07:09;1.30;;;1.20;;
49826;SDS011;35715;51.570;6.036;2023-07-29T14:09:35;1.48;;;1.20;;
49826;SDS011;35715;51.570;6.036;2023-07-29T14:12:00;2.30;;;1.30;;
49826;SDS011;35715;51.570;6.036;2023-07-29T14:14:25;1.92;;;1.20;;
49826;SDS011;35715;51.570;6.036;2023-07-29T14:16:51;1.85;;;1.75;;
49826;SDS011;35715;51.570;6.036;2023-07-29T14:19:16;3.03;;;2.53;;
49826;SDS011;35715;51.570;6.036;2023-07-29T14:21:42;1.92;;;1.77;;
49826;SDS011;35715;51.570;6.036;2023-07-29T14:24:07;1.67;;;1.58;;
49826;SDS011;35715;51.570;6.036;2023-07-29T14:26:32;2.10;;;1.90;;
49826;SDS011;35715;51.570;6.036;2023-07-29T14:28:58;4.63;;;1.85;;
49826;SDS011;35715;51.570;6.036;2023-07-29T14:31:23;1.40;;;1.30;;
49826;SDS011;35715;51.570;6.036;2023-07-29T14:33:48;1.88;;;1.77;;
49826;SDS011;35715;51.570;6.036;2023-07-29T14:36:14;3.97;;;1.77;;
49826;SDS011;35715;51.570;6.036;2023-07-29T14:38:40;2.38;;;1.42;;
49826;SDS011;35715;51.570;6.036;2023-07-29T14:41:06;1.10;;;1.00;;
49826;SDS011;35715;51.570;6.036;2023-07-29T14:43:31;6.28;;;1.95;;
49826;SDS011;35715;51.570;6.036;2023-07-29T14:45:57;3.75;;;1.48;;
49826;SDS011;35715;51.570;6.036;2023-07-29T14:48:22;1.67;;;1.55;;
49826;SDS011;35715;51.570;6.036;2023-07-29T14:50:48;1.63;;;1.52;;
49826;SDS011;35715;51.570;6.036;2023-07-29T14:53:13;3.13;;;2.13;;
49826;SDS011;35715;51.570;6.036;2023-07-29T14:55:39;3.08;;;1.30;;
49826;SDS011;35715;51.570;6.036;2023-07-29T14:58:04;3.45;;;1.75;;
49826;SDS011;35715;51.570;6.036;2023-07-29T15:00:29;1.30;;;1.20;;
49826;SDS011;35715;51.570;6.036;2023-07-29T15:02:55;1.40;;;1.30;;
49826;SDS011;35715;51.570;6.036;2023-07-29T15:05:20;2.20;;;2.00;;